Time;durP1;ratioP1;P1;durP2;ratioP2;P2;SDS_P1;SDS_P2;PMS_P1;PMS_P2;Temp;Humidity;BMP_temperature;BMP_pressure;BME280_temperature;BME280_humidity;BME280_pressure;Samples;Min_cycle;Max_cycle;Signal;HPM_P1;HPM_P2
2023/02/24 00:02:02;;;;;;;10.98;5.93;;;;;;;10.42;57.16;99809.09;4993103;28;20026;-81
2023/02/24 00:04:33;;;;;;;10.40;5.22;;;;;;;11.06;57.70;99907.53;4991706;28;20019;-81
2023/02/24 00:06:58;;;;;;;7.87;5.00;;;;;;;10.08;56.88;99753.88;4991738;28;20546;-82
2023/02/24 00:09:26;;;;;;;7.65;4.22;;;;;;;10.80;57.35;99863.72;4992861;28;20357;-81
2023/02/24 00:12:03;;;;;;;7.85;4.63;;;;;;;10.47;57.29;99831.34;4991213;28;20030;-81
2023/02/24 00:14:32;;;;;;;11.05;4.57;;;;;;;10.91;57.60;99898.69;4992681;28;20029;-81
2023/02/24 00:16:58;;;;;;;7.80;4.15;;;;;;;8.59;57.93;99532.13;4992737;28;20396;-81
2023/02/24 00:19:25;;;;;;;8.27;4.47;;;;;;;10.83;58.04;99892.44;4991410;28;20022;-81
2023/02/24 00:21:55;;;;;;;15.77;5.55;;;;;;;10.81;57.87;99885.66;4992340;28;20117;-82
2023/02/24 00:24:21;;;;;;;9.93;3.92;;;;;;;10.35;58.10;99824.75;4992487;28;20030;-82
2023/02/24 00:26:56;;;;;;;8.43;4.43;;;;;;;10.13;58.57;99770.03;4991159;28;20384;-81
2023/02/24 00:29:23;;;;;;;9.05;3.90;;;;;;;10.64;57.90;99881.44;4992572;28;20018;-81
2023/02/24 00:31:58;;;;;;;11.43;4.47;;;;;;;10.31;58.12;99814.69;4992311;28;20033;-81
2023/02/24 00:34:33;;;;;;;8.95;3.67;;;;;;;10.75;58.51;99878.44;4990908;28;20034;-81
2023/02/24 00:36:58;;;;;;;14.52;4.43;;;;;;;9.98;58.25;99762.00;4990819;28;20018;-82
2023/02/24 00:39:29;;;;;;;9.20;4.22;;;;;;;10.65;58.28;99888.38;4992290;28;20018;-81
2023/02/24 00:42:03;;;;;;;10.18;3.90;;;;;;;10.68;58.71;99870.38;4990946;28;20022;-81
2023/02/24 00:44:31;;;;;;;9.18;3.95;;;;;;;10.72;58.22;99873.50;4992043;28;20033;-82
2023/02/24 00:46:59;;;;;;;10.48;4.30;;;;;;;10.69;58.34;99879.13;4990845;28;20033;-81
2023/02/24 00:49:24;;;;;;;9.57;4.10;;;;;;;9.82;58.47;99743.56;4992214;28;20081;-81
2023/02/24 00:51:53;;;;;;;9.27;3.90;;;;;;;10.65;58.41;99877.81;4992297;28;20454;-81
2023/02/24 00:54:19;;;;;;;10.63;4.40;;;;;;;9.93;58.95;99761.66;4992550;28;20418;-81
2023/02/24 00:56:47;;;;;;;9.30;4.05;;;;;;;10.36;59.14;99841.41;4992230;28;20504;-81
2023/02/24 00:59:14;;;;;;;10.38;4.60;;;;;;;10.25;59.04;99823.28;4992090;28;20019;-81
2023/02/24 01:01:43;;;;;;;11.65;4.97;;;;;;;10.51;58.75;99863.50;4992027;28;20022;-82
2023/02/24 01:04:12;;;;;;;12.30;4.75;;;;;;;10.14;59.32;99805.97;4991979;28;20026;-81
2023/02/24 01:06:41;;;;;;;9.25;4.40;;;;;;;10.48;59.09;99859.38;4992013;28;20487;-81
2023/02/24 01:09:07;;;;;;;12.45;5.03;;;;;;;10.13;59.72;99801.69;4990696;28;20400;-81
2023/02/24 01:14:22;;;;;;;12.88;4.63;;;;;;;9.95;59.65;99772.88;4992199;28;20098;-81
2023/02/24 01:16:49;;;;;;;13.15;4.93;;;;;;;10.06;59.73;99804.19;4991788;28;20401;-81
2023/02/24 01:19:20;;;;;;;14.50;5.22;;;;;;;9.79;59.56;99746.53;4991869;28;20069;-81
2023/02/24 01:21:46;;;;;;;14.77;4.88;;;;;;;9.84;60.03;99760.88;4990500;28;20050;-81
2023/02/24 01:24:14;;;;;;;12.95;5.30;;;;;;;10.43;59.92;99837.13;4991571;28;20026;-82
2023/02/24 01:26:40;;;;;;;12.25;5.40;;;;;;;9.40;60.04;99667.34;4995686;28;20018;-81
2023/02/24 01:29:09;;;;;;;11.73;5.57;;;;;;;10.01;59.92;99782.75;4995682;28;20100;-81
2023/02/24 01:31:37;;;;;;;13.50;5.00;;;;;;;10.43;59.43;99830.03;4995811;28;20026;-81
2023/02/24 01:34:04;;;;;;;14.65;6.68;;;;;;;9.86;60.09;99748.34;4995713;28;20046;-81
2023/02/24 01:36:32;;;;;;;11.40;5.50;;;;;;;10.41;59.57;99826.72;4994257;28;20022;-81
2023/02/24 01:38:59;;;;;;;11.90;5.40;;;;;;;9.55;60.00;99689.38;4995637;28;20495;-81
2023/02/24 01:41:29;;;;;;;13.07;6.03;;;;;;;10.08;59.72;99788.19;4995516;28;20061;-81
2023/02/24 01:44:08;;;;;;;13.25;5.53;;;;;;;10.41;60.03;99831.19;4995398;28;20563;-81
2023/02/24 01:46:52;;;;;;;14.10;5.60;;;;;;;10.05;59.63;99784.06;4994204;28;20038;-81
2023/02/24 01:49:19;;;;;;;14.70;6.45;;;;;;;10.44;59.89;99839.59;4995172;28;20044;-81
2023/02/24 01:51:53;;;;;;;11.43;4.78;;;;;;;10.43;60.17;99829.22;4993807;28;20085;-81
2023/02/24 01:54:25;;;;;;;12.73;4.93;;;;;;;9.84;59.50;99752.13;4995395;28;20022;-81
2023/02/24 01:56:52;;;;;;;11.85;5.25;;;;;;;9.55;59.59;99684.09;4995264;28;20564;-81
2023/02/24 01:59:25;;;;;;;13.85;4.70;;;;;;;9.63;59.70;99733.34;4994096;28;20022;-81
2023/02/24 02:01:54;;;;;;;12.27;5.22;;;;;;;10.42;59.82;99822.28;4995257;28;20499;-82
2023/02/24 02:04:32;;;;;;;12.25;5.50;;;;;;;10.25;59.64;99800.38;4995215;28;20056;-82
2023/02/24 02:06:59;;;;;;;10.90;5.55;;;;;;;10.40;59.76;99822.44;4995114;28;20069;-81
2023/02/24 02:09:26;;;;;;;11.95;4.72;;;;;;;10.14;59.68;99787.50;4993792;28;20025;-81
2023/02/24 02:11:52;;;;;;;13.60;5.40;;;;;;;10.23;59.39;99796.25;4994992;28;20029;-81
2023/02/24 02:14:21;;;;;;;18.58;5.38;;;;;;;9.72;59.36;99719.19;4995077;28;20022;-81
2023/02/24 02:17:02;;;;;;;11.90;5.43;;;;;;;10.42;59.53;99819.63;4994934;28;20022;-81
2023/02/24 02:19:54;;;;;;;11.13;5.55;;;;;;;10.42;59.09;99814.38;4994721;28;20050;-81
2023/02/24 02:23:05;;;;;;;9.85;5.50;;;;;;;10.19;59.51;99779.91;4993330;28;20570;-82
2023/02/24 02:25:30;;;;;;;12.20;4.80;;;;;;;10.42;59.32;99812.53;4994822;28;20040;-82
2023/02/24 02:28:35;;;;;;;15.18;5.43;;;;;;;10.42;59.73;99814.38;4994689;28;20498;-81
2023/02/24 02:31:24;;;;;;;9.75;5.00;;;;;;;10.41;59.06;99813.53;4993232;28;20503;-81
2023/02/24 02:34:14;;;;;;;11.48;5.35;;;;;;;10.39;59.29;99814.66;4994605;28;20026;-82
2023/02/24 02:36:48;;;;;;;13.63;5.85;;;;;;;10.39;58.77;99818.13;4994235;28;20087;-81
2023/02/24 02:39:17;;;;;;;10.13;5.53;;;;;;;10.41;58.92;99812.72;4993270;28;20030;-82
2023/02/24 02:41:45;;;;;;;15.48;5.63;;;;;;;10.43;59.52;99818.66;4993150;28;20034;-81
2023/02/24 02:44:21;;;;;;;9.63;5.20;;;;;;;10.07;59.35;99770.69;4993167;28;20104;-82
2023/02/24 02:46:55;;;;;;;15.38;5.97;;;;;;;10.27;58.52;99816.84;4994718;28;20093;-81
2023/02/24 02:49:42;;;;;;;12.50;4.60;;;;;;;10.26;58.80;99811.75;4993130;28;20026;-82
2023/02/24 02:52:26;;;;;;;9.70;5.40;;;;;;;10.16;58.38;99790.78;4994436;28;20026;-81
2023/02/24 02:55:00;;;;;;;10.07;5.13;;;;;;;10.16;58.83;99794.25;4992829;28;20057;-81
2023/02/24 02:57:28;;;;;;;13.40;7.07;;;;;;;10.47;58.54;99831.34;4992765;28;20558;-81
2023/02/24 03:00:12;;;;;;;10.02;5.13;;;;;;;10.44;58.63;99830.84;4994140;28;20022;-81
2023/02/24 03:02:41;;;;;;;11.60;7.07;;;;;;;10.46;58.46;99828.88;4992971;28;20050;-81
2023/02/24 03:05:09;;;;;;;12.27;6.43;;;;;;;9.28;58.41;99684.47;4994027;28;20022;-81
2023/02/24 03:07:41;;;;;;;16.88;6.70;;;;;;;9.67;58.32;99703.88;4992715;28;20029;-81
2023/02/24 03:10:21;;;;;;;10.32;5.90;;;;;;;9.55;58.40;99687.56;4993905;28;20074;-81
2023/02/24 03:12:54;;;;;;;10.43;6.40;;;;;;;10.11;58.03;99779.94;4992586;28;20054;-81
2023/02/24 03:15:22;;;;;;;10.25;5.28;;;;;;;8.99;58.54;99601.53;4992499;28;20028;-81
2023/02/24 03:17:55;;;;;;;10.13;5.60;;;;;;;9.93;58.23;99748.47;4993864;28;20018;-81
2023/02/24 03:20:33;;;;;;;11.38;6.03;;;;;;;9.64;58.60;99716.53;4993811;28;20054;-82
2023/02/24 03:23:05;;;;;;;12.13;6.05;;;;;;;10.33;58.72;99828.53;4992416;28;20046;-81
2023/02/24 03:25:43;;;;;;;10.70;4.88;;;;;;;10.29;58.29;99817.50;4993755;28;20030;-82
2023/02/24 03:28:17;;;;;;;12.98;5.72;;;;;;;9.96;58.43;99753.41;4993564;28;20018;-81
2023/02/24 03:30:52;;;;;;;15.07;5.70;;;;;;;10.29;58.49;99829.88;4993624;28;20474;-82
2023/02/24 03:33:24;;;;;;;12.38;6.10;;;;;;;9.20;58.60;99636.09;4993459;28;20411;-81
2023/02/24 03:35:50;;;;;;;18.83;6.43;;;;;;;10.20;58.37;99784.22;4993199;28;20037;-82
2023/02/24 03:38:17;;;;;;;13.30;6.25;;;;;;;10.13;58.48;99776.13;4993404;28;20022;-81
2023/02/24 03:40:43;;;;;;;15.63;7.40;;;;;;;10.00;58.42;99759.19;4991948;28;20026;-82
2023/02/24 03:43:30;;;;;;;15.43;6.70;;;;;;;10.29;58.80;99800.84;4992069;28;20077;-82
2023/02/24 03:45:57;;;;;;;17.90;7.03;;;;;;;9.96;58.55;99756.06;4993292;28;20522;-81
2023/02/24 03:48:25;;;;;;;11.90;5.63;;;;;;;10.24;58.14;99777.59;4992545;28;20026;-82
2023/02/24 03:50:52;;;;;;;11.20;5.78;;;;;;;9.48;57.95;99691.03;4991702;28;20088;-82
2023/02/24 03:53:43;;;;;;;12.32;5.93;;;;;;;10.24;58.22;99788.16;4991838;28;20053;-81
2023/02/24 03:56:23;;;;;;;12.13;5.85;;;;;;;10.23;58.65;99796.25;4993111;28;20152;-81
2023/02/24 03:59:29;;;;;;;12.05;5.43;;;;;;;10.16;58.42;99788.16;4991764;28;20030;-81
2023/02/24 04:02:14;;;;;;;9.93;5.20;;;;;;;10.17;58.58;99798.53;4992020;28;20532;-81
2023/02/24 04:04:53;;;;;;;13.95;6.53;;;;;;;10.19;58.25;99793.09;4992961;28;20121;-82
2023/02/24 04:07:42;;;;;;;10.02;5.90;;;;;;;10.19;58.29;99801.84;4992981;28;20014;-82
2023/02/24 04:10:24;;;;;;;14.63;6.60;;;;;;;9.91;58.29;99754.91;4991448;28;20065;-81
2023/02/24 04:13:03;;;;;;;13.60;6.70;;;;;;;10.15;58.15;99787.34;4991424;28;20022;-82
2023/02/24 04:15:36;;;;;;;18.13;7.43;;;;;;;9.94;58.48;99763.31;4991366;28;20032;-81
2023/02/24 04:18:22;;;;;;;12.68;7.43;;;;;;;10.12;58.19;99798.22;4992831;28;20022;-82
2023/02/24 04:20:51;;;;;;;17.75;9.05;;;;;;;10.05;58.26;99791.97;4992727;28;20488;-81
2023/02/24 04:23:23;;;;;;;16.92;8.07;;;;;;;8.88;58.37;99588.69;4992443;28;20050;-81
2023/02/24 04:25:52;;;;;;;14.90;8.48;;;;;;;10.18;58.29;99796.72;4991193;28;20458;-82
2023/02/24 04:28:21;;;;;;;13.68;8.63;;;;;;;10.19;58.47;99790.47;4992575;28;20423;-81
2023/02/24 04:30:50;;;;;;;14.15;8.30;;;;;;;10.18;58.01;99802.00;4991248;28;20097;-81
2023/02/24 04:33:16;;;;;;;16.45;7.05;;;;;;;9.76;58.50;99725.78;4991281;28;20089;-81
2023/02/24 04:35:49;;;;;;;15.65;7.53;;;;;;;9.66;58.29;99723.31;4991106;28;20026;-82
2023/02/24 04:38:15;;;;;;;14.90;7.82;;;;;;;9.41;58.29;99674.25;4992335;28;20026;-82
2023/02/24 04:40:41;;;;;;;14.48;7.63;;;;;;;9.69;58.49;99722.16;4992372;28;20028;-81
2023/02/24 04:43:07;;;;;;;17.25;9.43;;;;;;;10.08;58.17;99791.63;4990977;28;20037;-81
2023/02/24 04:45:33;;;;;;;14.88;8.98;;;;;;;9.35;58.22;99706.53;4992328;28;20022;-82
2023/02/24 04:48:00;;;;;;;18.15;8.07;;;;;;;10.07;58.92;99787.34;4992249;28;20037;-81
2023/02/24 04:50:33;;;;;;;15.68;6.95;;;;;;;9.35;58.63;99678.38;4990979;28;20033;-82
2023/02/24 04:53:05;;;;;;;13.35;6.00;;;;;;;10.08;58.50;99778.44;4992056;28;20023;-82
2023/02/24 04:55:35;;;;;;;;;;;;;;;9.91;58.93;99774.19;4992599;28;20033;-82
2023/02/24 04:58:01;;;;;;;13.38;5.57;;;;;;;9.36;58.46;99681.84;4992242;28;19917;-82
2023/02/24 05:00:34;;;;;;;12.15;4.90;;;;;;;10.03;58.54;99772.03;4992182;28;20026;-81
2023/02/24 05:03:03;;;;;;;14.18;6.07;;;;;;;9.48;58.06;99675.22;4992171;28;20018;-81
2023/02/24 05:05:32;;;;;;;14.70;6.47;;;;;;;9.61;58.64;99701.88;4990722;28;20022;-81
2023/02/24 05:08:03;;;;;;;12.45;6.18;;;;;;;9.72;58.11;99722.66;4992008;28;20487;-81
2023/02/24 05:10:40;;;;;;;12.90;7.72;;;;;;;9.95;58.25;99741.22;4992123;28;20026;-82
2023/02/24 05:13:07;;;;;;;16.67;8.35;;;;;;;10.06;58.40;99748.78;4992020;28;20033;-82
2023/02/24 05:15:36;;;;;;;17.35;7.35;;;;;;;10.03;58.85;99754.38;4991852;28;20030;-81
2023/02/24 05:18:07;;;;;;;16.95;7.38;;;;;;;9.49;58.26;99666.34;4992152;28;20050;-81
2023/02/24 05:23:33;;;;;;;11.57;5.15;;;;;;;9.81;58.24;99755.94;4991585;28;20077;-81
2023/02/24 05:25:59;;;;;;;10.63;5.82;;;;;;;9.64;58.42;99719.19;4991783;28;20033;-81
2023/02/24 05:28:25;;;;;;;13.73;5.55;;;;;;;9.26;58.32;99645.13;4990574;28;20026;-81
2023/02/24 05:30:55;;;;;;;12.63;6.57;;;;;;;9.80;58.37;99729.72;4991830;28;20021;-82
2023/02/24 05:33:20;;;;;;;13.57;6.68;;;;;;;8.82;58.43;99571.75;4990533;28;20088;-81
2023/02/24 05:35:52;;;;;;;12.00;6.60;;;;;;;9.44;58.55;99698.47;4990430;28;20023;-81
2023/02/24 05:38:20;;;;;;;;;;;;;;;9.86;58.61;99766.78;4990902;28;20030;-81
2023/02/24 05:40:46;;;;;;;14.90;7.18;;;;;;;9.78;58.03;99735.16;4991818;28;19939;-81
2023/02/24 05:43:17;;;;;;;16.27;8.07;;;;;;;9.63;58.72;99714.91;4991688;28;20029;-81
2023/02/24 05:45:44;;;;;;;14.65;8.13;;;;;;;9.43;58.06;99664.38;4990410;28;20420;-82
2023/02/24 05:48:13;;;;;;;14.95;7.68;;;;;;;10.12;57.90;99773.66;4991625;28;20030;-81
2023/02/24 05:50:39;;;;;;;15.05;8.30;;;;;;;9.18;57.75;99622.25;4990336;28;20030;-81
2023/02/24 05:53:08;;;;;;;19.27;7.85;;;;;;;10.04;57.69;99760.50;4991543;28;20049;-82
2023/02/24 05:55:35;;;;;;;14.48;7.60;;;;;;;9.92;57.72;99730.19;4990249;28;20073;-81
2023/02/24 05:58:05;;;;;;;9.80;6.75;;;;;;;9.47;57.03;99657.78;4990343;28;20029;-81
2023/02/24 06:00:30;;;;;;;15.43;6.78;;;;;;;10.26;57.61;99786.19;4990265;28;20022;-81
2023/02/24 06:03:07;;;;;;;15.60;7.85;;;;;;;9.81;56.87;99716.38;4991566;28;20093;-81
2023/02/24 06:05:32;;;;;;;15.18;8.85;;;;;;;9.79;57.07;99752.63;4991579;28;20487;-81
2023/02/24 06:08:05;;;;;;;18.27;9.52;;;;;;;10.14;57.08;99771.66;4991525;28;20022;-81
2023/02/24 06:10:33;;;;;;;26.38;9.73;;;;;;;9.68;57.18;99681.81;4993085;28;20022;-81
2023/02/24 06:13:02;;;;;;;18.45;9.27;;;;;;;10.39;57.31;99785.63;4994964;28;20030;-82
2023/02/24 06:15:28;;;;;;;18.17;8.57;;;;;;;10.21;57.50;99766.56;4995106;28;20027;-81
2023/02/24 06:17:55;;;;;;;19.80;8.35;;;;;;;9.01;57.55;99570.59;4993927;28;20025;-81
2023/02/24 06:20:25;;;;;;;18.90;8.63;;;;;;;9.65;57.46;99682.09;4994912;28;20027;-81
2023/02/24 06:22:53;;;;;;;25.33;10.50;;;;;;;10.13;57.62;99804.31;4994818;28;20064;-81
2023/02/24 06:25:23;;;;;;;18.95;9.48;;;;;;;10.42;57.43;99790.59;4993693;28;20073;-81
2023/02/24 06:27:54;;;;;;;16.13;8.68;;;;;;;10.47;57.21;99785.63;4988738;28;20044;-81
2023/02/24 06:30:22;;;;;;;20.73;9.82;;;;;;;10.50;57.21;99801.13;4992167;28;20058;-81
2023/02/24 06:32:48;;;;;;;15.63;8.80;;;;;;;10.51;57.21;99797.50;4993765;28;20081;-81
2023/02/24 06:35:15;;;;;;;16.67;8.32;;;;;;;10.59;56.83;99796.63;4990276;28;20054;-81
2023/02/24 06:37:40;;;;;;;20.77;9.27;;;;;;;10.63;56.88;99801.41;4979547;28;20049;-81
2023/02/24 06:40:14;;;;;;;21.33;8.75;;;;;;;10.67;56.61;99794.78;4993533;28;20030;-81
2023/02/24 06:42:44;;;;;;;20.25;9.43;;;;;;;10.70;56.39;99809.47;4986736;28;20033;-81
2023/02/24 06:45:10;;;;;;;27.08;10.18;;;;;;;10.41;56.57;99758.09;4973146;28;20023;-81
2023/02/24 06:47:36;;;;;;;21.15;9.35;;;;;;;10.49;56.37;99755.44;4989750;28;20038;-80
2023/02/24 06:50:05;;;;;;;23.15;10.43;;;;;;;10.62;56.83;99767.25;4974502;28;20085;-81
2023/02/24 06:52:30;;;;;;;26.35;10.27;;;;;;;10.02;56.39;99670.97;4986819;28;20421;-80
2023/02/24 06:54:56;;;;;;;20.02;10.10;;;;;;;10.26;56.37;99712.28;4979919;28;20022;-81
2023/02/24 06:57:22;;;;;;;21.10;9.13;;;;;;;10.63;56.35;99766.25;4976018;28;20035;-81
2023/02/24 06:59:47;;;;;;;17.67;7.63;;;;;;;10.69;56.13;99781.41;4975032;28;20042;-81
2023/02/24 07:02:13;;;;;;;22.48;8.20;;;;;;;10.70;56.14;99780.41;4974849;28;20027;-80
2023/02/24 07:04:44;;;;;;;17.25;8.30;;;;;;;10.09;56.29;99679.03;4976923;28;20022;-81
2023/02/24 07:07:12;;;;;;;17.70;9.50;;;;;;;10.07;56.55;99676.56;4986055;28;20025;-80
2023/02/24 07:09:39;;;;;;;15.98;8.50;;;;;;;10.24;56.27;99684.44;4979173;28;20034;-80
2023/02/24 07:12:06;;;;;;;20.02;9.30;;;;;;;9.83;56.41;99624.72;4980970;28;20121;-80
2023/02/24 07:14:32;;;;;;;23.30;10.93;;;;;;;10.64;56.23;99737.03;4994734;28;20022;-81
2023/02/24 07:16:58;;;;;;;15.80;8.27;;;;;;;10.55;56.26;99713.50;4989670;28;20041;-81
2023/02/24 07:19:31;;;;;;;21.42;8.55;;;;;;;10.80;55.69;99759.88;4975755;28;20030;-81
2023/02/24 07:22:02;;;;;;;25.55;10.25;;;;;;;10.52;55.86;99719.94;4979461;28;20125;-81
2023/02/24 07:24:34;;;;;;;21.60;10.93;;;;;;;10.72;55.91;99749.38;4992126;28;20124;-81
2023/02/24 07:27:11;;;;;;;18.27;11.27;;;;;;;10.83;55.73;99746.34;4984572;28;20033;-81
2023/02/24 07:29:37;;;;;;;22.40;11.93;;;;;;;10.88;56.11;99749.28;4992275;28;20101;-84
2023/02/24 07:32:07;;;;;;;17.17;9.95;;;;;;;10.95;55.98;99744.09;4983301;28;20025;-82
2023/02/24 07:34:32;;;;;;;16.80;9.80;;;;;;;10.98;55.50;99741.13;4986079;28;20082;-82
2023/02/24 07:37:01;;;;;;;18.33;9.38;;;;;;;10.56;55.20;99681.63;4976979;28;20030;-82
2023/02/24 07:39:27;;;;;;;20.00;11.25;;;;;;;10.47;54.72;99674.75;4992468;28;20032;-82
2023/02/24 07:41:54;;;;;;;17.17;9.75;;;;;;;10.02;55.01;99623.50;4983494;28;20031;-81
2023/02/24 07:44:22;;;;;;;13.20;8.50;;;;;;;10.75;54.96;99727.91;4994047;28;20026;-83
2023/02/24 07:46:48;;;;;;;14.48;8.85;;;;;;;10.71;55.31;99729.25;4996225;28;20446;-81
2023/02/24 07:49:18;;;;;;;17.08;8.65;;;;;;;10.11;54.98;99619.81;4994271;28;20034;-81
2023/02/24 07:51:45;;;;;;;15.35;8.55;;;;;;;9.92;55.21;99601.78;4987376;28;20113;-82
2023/02/24 07:54:14;;;;;;;19.42;8.30;;;;;;;10.58;55.05;99689.38;4991389;28;20491;-82
2023/02/24 07:56:44;;;;;;;14.93;7.13;;;;;;;9.94;55.36;99570.78;4982012;28;20018;-82
2023/02/24 07:59:14;;;;;;;16.42;8.98;;;;;;;10.79;55.16;99700.13;5001723;28;20022;-83
2023/02/24 08:01:48;;;;;;;16.48;7.55;;;;;;;11.07;54.65;99716.28;4995439;28;20499;-83
2023/02/24 08:04:15;;;;;;;18.35;8.43;;;;;;;11.00;54.47;99710.06;4994117;28;20061;-82
2023/02/24 08:06:45;;;;;;;16.42;8.70;;;;;;;11.09;55.08;99709.00;5000438;28;20097;-83
2023/02/24 08:09:16;;;;;;;17.20;8.15;;;;;;;11.18;53.91;99710.59;4988369;28;20539;-82
2023/02/24 08:11:51;;;;;;;18.65;7.45;;;;;;;10.95;54.36;99667.50;4971746;28;20030;-81
2023/02/24 08:14:25;;;;;;;13.90;7.53;;;;;;;11.36;54.25;99711.09;4970705;28;20508;-82
2023/02/24 08:16:58;;;;;;;13.93;8.48;;;;;;;11.42;53.97;99704.28;4991912;28;20030;-82
2023/02/24 08:19:31;;;;;;;17.05;8.25;;;;;;;11.57;53.36;99701.66;5002900;28;20033;-83
2023/02/24 08:22:10;;;;;;;17.58;8.77;;;;;;;11.63;54.19;99698.28;5000196;28;20210;-82
2023/02/24 08:24:35;;;;;;;16.70;9.98;;;;;;;10.99;52.93;99597.47;4983443;28;20081;-82
2023/02/24 08:27:06;;;;;;;19.27;10.70;;;;;;;10.58;53.42;99565.31;4975652;28;20026;-81
2023/02/24 08:29:39;;;;;;;13.18;8.57;;;;;;;11.54;53.50;99676.41;4980581;28;20036;-82
2023/02/24 08:32:10;;;;;;;14.40;7.10;;;;;;;11.84;53.14;99702.91;4981161;28;20034;-82
2023/02/24 08:34:37;;;;;;;14.95;9.35;;;;;;;11.71;53.15;99688.44;4983281;28;20041;-82
2023/02/24 08:37:03;;;;;;;14.90;7.97;;;;;;;11.22;52.78;99611.47;4981938;28;21143;-82
2023/02/24 08:39:32;;;;;;;15.13;7.97;;;;;;;11.02;52.62;99576.78;4991173;28;20092;-82
2023/02/24 08:41:58;;;;;;;10.43;7.03;;;;;;;11.37;52.80;99633.44;4990683;28;20439;-82
2023/02/24 08:44:25;;;;;;;10.95;7.82;;;;;;;11.83;52.13;99694.13;4989447;28;20026;-82
2023/02/24 08:46:52;;;;;;;16.08;9.77;;;;;;;11.74;52.54;99668.75;4997501;28;20045;-82
2023/02/24 08:49:18;;;;;;;17.58;10.93;;;;;;;11.14;52.22;99571.88;4979134;28;20037;-82
2023/02/24 08:51:45;;;;;;;15.32;9.93;;;;;;;12.05;52.03;99680.03;4986560;28;20018;-81
2023/02/24 08:54:17;;;;;;;15.70;10.07;;;;;;;11.03;52.16;99509.72;5007404;28;20030;-81
2023/02/24 08:56:47;;;;;;;16.98;9.50;;;;;;;12.20;52.44;99681.81;4993149;28;20022;-82
2023/02/24 09:02:17;;;;;;;20.77;10.60;;;;;;;11.98;51.69;99623.53;4995554;28;20034;-82
2023/02/24 09:04:50;;;;;;;18.77;10.60;;;;;;;12.36;51.81;99700.16;4985887;28;20495;-81
2023/02/24 09:07:25;;;;;;;18.25;10.32;;;;;;;12.02;51.69;99637.22;4979599;28;20026;-81
2023/02/24 09:09:55;;;;;;;17.58;10.55;;;;;;;12.14;51.58;99650.81;4975361;28;20073;-81
2023/02/24 09:12:27;;;;;;;16.73;9.60;;;;;;;12.50;51.60;99688.69;4972378;28;20034;-81
2023/02/24 09:15:06;;;;;;;18.67;9.95;;;;;;;12.36;51.06;99661.25;4979704;28;20087;-81
2023/02/24 09:23:04;;;;;;;18.73;11.38;;;;;;;12.58;51.15;99683.28;4989712;28;20676;-82
2023/02/24 09:25:42;;;;;;;15.15;10.68;;;;;;;12.07;50.90;99600.44;4990424;28;20471;-82
2023/02/24 09:28:25;;;;;;;16.00;10.60;;;;;;;12.51;51.04;99685.03;4981228;28;20384;-82
2023/02/24 09:30:59;;;;;;;17.27;10.00;;;;;;;12.09;51.15;99622.25;4983213;28;20076;-82
2023/02/24 09:33:40;;;;;;;16.10;10.10;;;;;;;12.55;50.91;99672.25;4980775;28;20039;-81
2023/02/24 09:36:26;;;;;;;14.15;9.15;;;;;;;12.13;51.49;99612.94;4980766;28;20031;-81
2023/02/24 09:41:52;;;;;;;17.75;11.52;;;;;;;12.75;50.92;99661.88;4986938;28;20105;-81
2023/02/24 09:44:24;;;;;;;17.55;10.25;;;;;;;12.41;50.95;99605.09;4982117;28;20035;-83
2023/02/24 09:46:58;;;;;;;17.25;8.90;;;;;;;12.17;51.01;99544.56;4986714;28;20050;-82
2023/02/24 09:49:58;;;;;;;21.30;10.57;;;;;;;12.75;51.18;99638.03;4993725;28;20483;-82
2023/02/24 09:52:39;;;;;;;18.05;9.93;;;;;;;12.50;50.59;99616.38;5009263;28;20025;-82
2023/02/24 09:55:25;;;;;;;17.15;9.48;;;;;;;12.80;51.04;99656.84;5012109;28;20042;-81
2023/02/24 10:00:58;;;;;;;14.30;7.97;;;;;;;12.74;50.51;99605.44;5013749;28;20470;-83
2023/02/24 10:03:41;;;;;;;15.07;7.60;;;;;;;13.05;50.76;99663.38;5000517;28;20110;-81
2023/02/24 10:06:19;;;;;;;17.58;7.20;;;;;;;13.01;50.23;99639.09;4974101;28;20050;-83
2023/02/24 10:09:23;;;;;;;18.27;7.65;;;;;;;12.41;50.55;99590.00;4973953;28;20027;-83
2023/02/24 10:11:55;;;;;;;15.10;8.68;;;;;;;13.11;50.55;99628.16;4973794;28;20080;-83
2023/02/24 10:14:28;;;;;;;19.73;9.10;;;;;;;11.69;50.13;99391.59;4982530;28;20059;-83
2023/02/24 10:19:40;;;;;;;16.50;8.20;;;;;;;12.08;50.27;99408.88;5001815;28;20041;-83
2023/02/24 10:22:26;;;;;;;16.15;8.43;;;;;;;13.46;49.96;99612.34;4985369;28;20057;-82
2023/02/24 10:25:17;;;;;;;15.68;8.98;;;;;;;13.54;49.89;99601.56;4994005;28;20030;-83
2023/02/24 10:27:51;;;;;;;23.33;12.75;;;;;;;12.80;49.94;99474.03;4995278;28;20030;-84
2023/02/24 10:30:39;;;;;;;17.92;10.57;;;;;;;13.38;50.19;99594.75;4992799;28;20046;-83
2023/02/24 10:33:16;;;;;;;17.65;11.23;;;;;;;13.43;50.07;99610.06;4994477;28;20061;-83
2023/02/24 10:35:42;;;;;;;20.83;13.27;;;;;;;13.02;50.10;99521.47;4994179;28;20033;-83
2023/02/24 10:38:08;;;;;;;16.05;10.55;;;;;;;12.53;49.93;99433.25;4984091;28;20034;-83
2023/02/24 10:40:55;;;;;;;15.77;10.30;;;;;;;13.53;49.94;99570.75;4974752;28;20046;-83
2023/02/24 10:43:30;;;;;;;20.08;11.30;;;;;;;12.84;49.85;99440.81;4974687;28;20548;-84
2023/02/24 10:46:15;;;;;;;18.17;11.60;;;;;;;13.66;49.94;99553.06;5004983;28;20498;-84
2023/02/24 10:48:51;;;;;;;16.02;12.23;;;;;;;13.62;49.88;99556.31;5010708;28;20034;-84
2023/02/24 10:51:20;;;;;;;17.42;13.88;;;;;;;13.65;50.12;99553.25;5010662;28;20033;-83
2023/02/24 10:54:20;;;;;;;17.42;12.30;;;;;;;13.51;49.74;99517.09;5012261;28;20029;-84
2023/02/24 10:56:43;;;;;;;;;;;;;;;13.64;50.02;99533.88;4974545;28;20029;-83
2023/02/24 11:01:57;;;;;;;20.30;13.27;;;;;;;13.75;49.91;99521.88;5013583;28;20025;-83
2023/02/24 11:07:10;;;;;;;20.30;14.52;;;;;;;13.43;50.30;99477.47;4990983;28;20106;-83
2023/02/24 11:09:51;;;;;;;23.00;14.75;;;;;;;13.09;49.99;99398.75;5009775;28;20057;-84
2023/02/24 11:18:25;;;;;;;22.52;14.25;;;;;;;13.58;50.13;99486.91;4990150;28;20037;-83
2023/02/24 11:20:54;;;;;;;17.90;13.07;;;;;;;13.74;50.11;99503.50;4993419;28;20574;-82
2023/02/24 11:23:27;;;;;;;20.00;15.35;;;;;;;13.73;50.55;99492.06;4993500;28;20042;-83
2023/02/24 11:26:03;;;;;;;26.63;16.40;;;;;;;13.04;50.40;99410.75;4991816;28;20488;-83
2023/02/24 11:28:31;;;;;;;29.33;18.40;;;;;;;13.74;50.32;99480.44;4976945;28;20061;-83
2023/02/24 11:31:06;;;;;;;21.67;16.42;;;;;;;13.73;50.61;99473.50;4993655;28;20093;-82
2023/02/24 11:33:58;;;;;;;23.13;15.93;;;;;;;13.69;50.72;99466.94;4994006;28;20080;-83
2023/02/24 11:36:29;;;;;;;28.42;19.00;;;;;;;13.64;50.50;99466.72;4992859;28;20031;-82
2023/02/24 11:39:29;;;;;;;20.13;14.93;;;;;;;13.13;50.77;99416.72;4991551;28;20584;-83
2023/02/24 11:41:58;;;;;;;28.67;17.27;;;;;;;12.75;50.85;99347.44;4993853;28;20418;-82
2023/02/24 11:44:38;;;;;;;19.33;16.02;;;;;;;13.25;50.86;99409.84;4991836;28;20019;-82
2023/02/24 11:47:15;;;;;;;23.50;16.67;;;;;;;13.35;50.79;99405.00;4974936;28;20061;-83
2023/02/24 11:49:50;;;;;;;24.33;14.73;;;;;;;13.36;50.67;99374.81;4994611;28;20026;-82
2023/02/24 11:52:19;;;;;;;24.65;16.92;;;;;;;13.32;50.11;99339.09;5007199;28;20100;-83
2023/02/24 11:54:52;;;;;;;22.35;16.23;;;;;;;13.62;50.26;99378.56;4991277;28;20022;-81
2023/02/24 11:57:46;;;;;;;26.85;17.17;;;;;;;14.27;49.79;99436.22;5002650;28;20521;-83
2023/02/24 12:00:22;;;;;;;21.35;15.98;;;;;;;14.35;49.66;99429.06;4995388;28;20511;-83
2023/02/24 12:02:58;;;;;;;27.70;17.30;;;;;;;14.40;49.41;99424.78;4985387;28;20488;-83
2023/02/24 12:05:35;;;;;;;21.80;16.38;;;;;;;13.91;49.55;99340.22;4971757;28;20027;-82
2023/02/24 12:08:23;;;;;;;24.58;16.35;;;;;;;13.51;49.62;99287.13;4971041;28;20030;-83
2023/02/24 12:11:07;;;;;;;19.42;14.65;;;;;;;14.34;49.72;99419.47;4973014;28;20027;-83
2023/02/24 12:13:44;;;;;;;21.00;15.98;;;;;;;14.17;49.78;99393.31;4972019;28;20507;-83
2023/02/24 12:16:27;;;;;;;26.77;17.45;;;;;;;14.22;49.66;99390.06;4971582;28;20029;-83
2023/02/24 12:19:10;;;;;;;21.23;15.57;;;;;;;14.35;49.76;99419.25;4978129;28;20396;-82
2023/02/24 12:21:41;;;;;;;25.35;16.70;;;;;;;14.30;49.65;99395.97;4972427;28;20027;-81
2023/02/24 12:24:12;;;;;;;19.80;16.75;;;;;;;13.73;49.89;99314.28;4972682;28;20121;-83
2023/02/24 12:26:58;;;;;;;20.45;15.43;;;;;;;14.20;49.96;99392.09;4971553;28;20025;-83